createdAt,value
2022-10-04T00:02:12.074Z,100.00
2022-10-04T00:17:14.286Z,100.00
2022-10-04T00:32:16.154Z,100.00
2022-10-04T00:47:20.990Z,100.00
2022-10-04T01:02:29.079Z,100.00
2022-10-04T01:17:30.961Z,100.00
2022-10-04T01:32:32.904Z,100.00
2022-10-04T01:47:41.243Z,100.00
2022-10-04T02:02:51.363Z,100.00
2022-10-04T02:17:53.234Z,100.00
2022-10-04T02:33:00.175Z,100.00
2022-10-04T02:48:03.011Z,100.00
2022-10-04T03:03:16.571Z,100.00
2022-10-04T03:18:18.442Z,100.00
2022-10-04T03:33:20.910Z,100.00
2022-10-04T03:48:25.908Z,100.00
2022-10-04T04:03:28.186Z,100.00
2022-10-04T04:18:31.961Z,100.00
2022-10-04T04:33:49.357Z,100.00
2022-10-04T04:48:53.412Z,100.00
2022-10-04T05:04:02.221Z,100.00
2022-10-04T05:19:06.083Z,100.00
2022-10-04T05:34:15.717Z,100.00
2022-10-04T05:49:19.580Z,100.00
2022-10-04T06:04:30.831Z,100.00
2022-10-04T06:19:38.254Z,100.00
2022-10-04T06:34:49.235Z,100.00
2022-10-04T06:50:00.849Z,100.00
2022-10-04T07:05:09.410Z,100.00
2022-10-04T07:20:22.205Z,100.00
2022-10-04T07:35:34.719Z,100.00
2022-10-04T07:50:39.496Z,100.00
2022-10-04T08:05:42.841Z,100.00
2022-10-04T08:21:08.242Z,100.00
2022-10-04T08:36:22.977Z,100.00
2022-10-04T08:51:40.202Z,100.00
2022-10-04T09:06:42.552Z,100.00
2022-10-04T09:21:47.457Z,100.00
2022-10-04T09:37:04.047Z,100.00
2022-10-04T09:52:13.018Z,100.00
2022-10-04T10:07:33.337Z,100.00
2022-10-04T10:22:58.247Z,100.00
2022-10-04T10:38:19.037Z,89.49
2022-10-04T10:53:33.221Z,80.65
2022-10-04T11:08:56.057Z,72.56
2022-10-04T11:23:58.081Z,64.42
2022-10-04T11:39:05.818Z,57.77
2022-10-04T11:54:27.434Z,62.05
2022-10-04T12:09:39.958Z,66.05
2022-10-04T12:25:03.157Z,62.33
2022-10-04T12:40:20.017Z,66.59
2022-10-04T12:55:24.887Z,62.88
2022-10-04T13:10:44.487Z,70.19
2022-10-04T13:26:05.199Z,97.42
2022-10-04T13:41:07.038Z,100.00
2022-10-04T13:56:30.942Z,100.00
2022-10-04T14:11:51.891Z,95.45
2022-10-04T14:27:23.272Z,100.00
2022-10-04T14:42:25.245Z,100.00
2022-10-04T14:57:38.342Z,100.00
2022-10-04T15:28:17.429Z,100.00
2022-10-04T15:43:21.128Z,100.00
2022-10-04T15:58:42.079Z,100.00
2022-10-04T16:13:55.484Z,100.00
2022-10-04T16:29:00.597Z,100.00
2022-10-04T16:44:02.483Z,100.00
2022-10-04T16:59:05.004Z,100.00
2022-10-04T17:14:20.084Z,100.00
2022-10-04T17:29:32.540Z,100.00
2022-10-04T17:44:49.701Z,100.00
2022-10-04T17:59:53.705Z,100.00
2022-10-04T18:15:07.314Z,100.00
2022-10-04T18:30:14.240Z,100.00
2022-10-04T18:45:32.208Z,100.00
2022-10-04T19:00:56.698Z,100.00
2022-10-04T19:16:17.573Z,100.00
2022-10-04T19:31:21.883Z,100.00
2022-10-04T19:46:26.899Z,100.00
2022-10-04T20:01:29.789Z,100.00
2022-10-04T20:16:47.940Z,100.00
2022-10-04T20:31:53.770Z,100.00
2022-10-04T20:46:55.750Z,100.00
2022-10-04T21:02:01.198Z,100.00
2022-10-04T21:17:03.970Z,100.00
2022-10-04T21:32:06.000Z,100.00
2022-10-04T21:47:07.943Z,100.00
2022-10-04T22:02:09.936Z,100.00
2022-10-04T22:17:11.870Z,100.00
2022-10-04T22:32:24.606Z,100.00
2022-10-04T22:47:26.494Z,100.00
2022-10-04T23:02:29.525Z,100.00
2022-10-04T23:17:33.616Z,100.00
2022-10-04T23:32:35.621Z,100.00
2022-10-04T23:47:37.492Z,100.00
